Time;durP1;ratioP1;P1;durP2;ratioP2;P2;SDS_P1;SDS_P2;PMS_P1;PMS_P2;Temp;Humidity;BMP_temperature;BMP_pressure;BME280_temperature;BME280_humidity;BME280_pressure;Samples;Min_cycle;Max_cycle;Signal;HPM_P1;HPM_P2
2021/12/20 00:02:22;;;;;;;9.33;5.27;;;;;;;;;;4925157;29;20282;-94
2021/12/20 00:04:51;;;;;;;11.70;5.32;;;7.00;99.90;;;;;;4921612;29;20325;-93
2021/12/20 00:07:20;;;;;;;10.32;5.05;;;7.10;99.90;;;;;;4916749;29;20217;-93
2021/12/20 00:09:47;;;;;;;11.43;5.20;;;;;;;;;;4914485;29;20272;-93
2021/12/20 00:12:13;;;;;;;9.27;6.00;;;;;;;;;;4903476;28;20242;-93
2021/12/20 00:14:38;;;;;;;8.73;5.25;;;7.40;99.90;;;;;;4912208;29;20661;-94
2021/12/20 00:17:04;;;;;;;6.77;5.33;;;;;;;;;;4900518;29;20207;-94
2021/12/20 00:19:30;;;;;;;8.53;4.87;;;;;;;;;;4904152;28;20199;-94
2021/12/20 00:21:56;;;;;;;13.70;5.00;;;;;;;;;;4973251;28;20497;-93
2021/12/20 00:24:22;;;;;;;6.55;4.38;;;7.10;99.90;;;;;;4939994;28;20462;-94
2021/12/20 00:26:48;;;;;;;7.57;4.50;;;;;;;;;;4963803;28;20202;-93
2021/12/20 00:29:14;;;;;;;5.90;4.40;;;;;;;;;;4957589;28;20202;-94
2021/12/20 00:31:40;;;;;;;7.57;5.03;;;;;;;;;;4956529;28;20675;-94
2021/12/20 00:34:05;;;;;;;7.47;4.50;;;7.20;99.90;;;;;;4979814;28;20222;-93
2021/12/20 00:36:31;;;;;;;10.13;4.47;;;6.70;99.90;;;;;;4915614;28;20521;-94
2021/12/20 00:41:41;;;;;;;8.63;5.32;;;6.80;99.90;;;;;;4948063;29;20239;-94
2021/12/20 00:44:12;;;;;;;7.10;4.27;;;6.50;99.90;;;;;;4927383;28;20194;-94
2021/12/20 00:46:38;;;;;;;5.07;4.15;;;9.10;99.90;;;;;;4939393;28;20197;-94
2021/12/20 00:49:03;;;;;;;12.20;4.23;;;8.50;99.90;;;;;;4933724;28;20191;-94
2021/12/20 00:51:29;;;;;;;10.00;4.20;;;6.70;99.90;;;;;;4974374;28;20194;-95
2021/12/20 00:53:55;;;;;;;7.10;4.50;;;6.70;99.90;;;;;;4976497;28;20222;-94
2021/12/20 00:56:21;;;;;;;8.20;5.00;;;;;;;;;;4943215;28;20201;-94
2021/12/20 00:58:46;;;;;;;6.72;3.72;;;7.10;99.90;;;;;;4981624;28;20198;-94
2021/12/20 01:01:12;;;;;;;16.43;4.97;;;6.70;99.90;;;;;;4978699;28;20320;-94
2021/12/20 01:03:37;;;;;;;11.50;4.70;;;8.00;99.90;;;;;;4976501;28;20190;-94
2021/12/20 01:06:04;;;;;;;8.63;3.17;;;;;;;;;;4995260;28;20206;-94
2021/12/20 01:08:34;;;;;;;5.28;3.20;;;6.90;99.90;;;;;;4989898;28;20202;-94
2021/12/20 01:11:04;;;;;;;3.33;2.78;;;6.50;99.90;;;;;;4976768;28;20201;-94
2021/12/20 01:13:31;;;;;;;7.13;3.92;;;6.60;99.90;;;;;;4975805;28;20226;-94
2021/12/20 01:16:00;;;;;;;8.63;3.80;;;6.90;99.90;;;;;;5014723;28;20553;-94
2021/12/20 01:18:26;;;;;;;12.20;3.75;;;6.10;99.90;;;;;;4942384;28;20273;-94
2021/12/20 01:20:52;;;;;;;6.60;3.40;;;6.90;99.90;;;;;;4974083;28;20265;-94
2021/12/20 01:23:18;;;;;;;9.53;3.87;;;6.90;99.90;;;;;;4967279;28;20252;-94
2021/12/20 01:25:45;;;;;;;10.88;3.40;;;6.40;99.90;;;;;;4933655;28;20187;-94
2021/12/20 01:28:11;;;;;;;10.65;4.38;;;6.70;99.90;;;;;;4992811;28;20199;-93
2021/12/20 01:30:38;;;;;;;5.23;3.80;;;6.50;99.90;;;;;;4974160;28;20206;-94
2021/12/20 01:33:08;;;;;;;8.65;3.35;;;6.70;99.90;;;;;;4995497;28;20210;-93
2021/12/20 01:35:34;;;;;;;8.18;3.40;;;6.70;99.90;;;;;;4981543;28;20223;-93
2021/12/20 01:38:01;;;;;;;10.02;5.45;;;6.70;99.90;;;;;;4966021;28;20660;-93
2021/12/20 01:40:26;;;;;;;11.80;3.95;;;6.80;99.90;;;;;;4957652;28;20187;-94
2021/12/20 01:42:55;;;;;;;13.27;5.30;;;6.80;99.90;;;;;;4983194;28;20209;-90
2021/12/20 01:45:25;;;;;;;8.35;4.65;;;6.90;99.90;;;;;;4981060;28;20437;-94
2021/12/20 01:48:02;;;;;;;10.13;4.03;;;6.90;99.90;;;;;;4993275;28;20223;-94
2021/12/20 01:51:11;;;;;;;6.20;3.30;;;;;;;;;;4963554;28;20275;-94
2021/12/20 01:53:17;;;;;;;22.33;4.35;;;6.80;99.90;;;;;;4950049;28;20309;-94
2021/12/20 01:55:43;;;;;;;7.97;4.10;;;6.80;99.90;;;;;;4964142;28;20213;-94
2021/12/20 01:58:12;;;;;;;12.00;3.63;;;7.70;99.90;;;;;;4927787;28;20203;-94
2021/12/20 02:00:37;;;;;;;6.97;3.38;;;9.90;99.90;;;;;;4956856;28;20457;-94
2021/12/20 02:03:03;;;;;;;9.30;3.90;;;;;;;;;;4965027;28;20700;-94
2021/12/20 02:11:12;;;;;;;12.75;3.50;;;6.90;99.90;;;;;;4946341;28;20203;-94
2021/12/20 02:13:42;;;;;;;7.50;3.38;;;9.70;99.90;;;;;;4933809;28;20234;-94
2021/12/20 02:16:08;;;;;;;11.27;3.53;;;8.70;99.90;;;;;;4994381;28;20193;-95
2021/12/20 02:18:34;;;;;;;8.70;3.53;;;;;;;;;;4933133;28;20202;-93
2021/12/20 02:21:00;;;;;;;9.73;3.42;;;6.90;99.90;;;;;;4931905;28;20493;-94
2021/12/20 02:23:26;;;;;;;9.87;4.30;;;8.70;99.90;;;;;;4939675;28;20191;-94
2021/12/20 02:25:52;;;;;;;10.27;3.45;;;7.40;99.90;;;;;;4953642;28;20202;-95
2021/12/20 02:28:21;;;;;;;9.97;3.50;;;6.80;99.90;;;;;;4951871;28;20202;-94
2021/12/20 02:38:51;;;;;;;9.27;4.15;;;6.80;99.90;;;;;;4957397;28;20377;-93
2021/12/20 02:41:33;;;;;;;5.85;3.63;;;6.40;99.90;;;;;;4930228;28;20210;-94
2021/12/20 02:44:05;;;;;;;11.55;3.90;;;6.50;99.90;;;;;;4981904;28;20716;-94
2021/12/20 02:49:15;;;;;;;12.50;4.88;;;6.50;99.90;;;;;;4960152;28;20689;-92
2021/12/20 02:51:43;;;;;;;12.45;4.63;;;6.70;99.90;;;;;;4941117;28;20217;-95
2021/12/20 02:54:11;;;;;;;15.73;5.40;;;6.50;99.90;;;;;;4975928;28;20199;-94
2021/12/20 02:56:38;;;;;;;17.38;5.63;;;6.90;99.90;;;;;;4945339;28;20350;-93
2021/12/20 02:59:05;;;;;;;12.80;7.20;;;6.50;99.90;;;;;;4936460;28;20826;-93
2021/12/20 03:01:31;;;;;;;14.07;4.20;;;6.90;99.90;;;;;;4941945;28;20187;-93
2021/12/20 03:03:58;;;;;;;11.43;3.90;;;6.80;99.90;;;;;;4925660;28;20203;-93
2021/12/20 03:06:27;;;;;;;12.00;3.75;;;6.50;99.90;;;;;;4930901;28;20194;-94
2021/12/20 03:08:55;;;;;;;10.73;3.50;;;8.50;99.90;;;;;;4941945;28;20275;-93
2021/12/20 03:11:23;;;;;;;8.80;3.10;;;7.00;99.90;;;;;;4989623;28;20653;-94
2021/12/20 03:13:53;;;;;;;8.70;3.67;;;6.90;99.90;;;;;;4986129;28;20250;-94
2021/12/20 03:16:19;;;;;;;9.27;3.28;;;6.40;99.90;;;;;;4976944;28;20190;-94
2021/12/20 03:18:45;;;;;;;8.18;3.28;;;6.60;99.90;;;;;;5007505;28;20202;-94
2021/12/20 03:21:11;;;;;;;9.02;3.25;;;6.60;99.90;;;;;;4978628;28;20219;-93
2021/12/20 03:23:37;;;;;;;17.73;5.00;;;8.60;99.90;;;;;;4959681;28;20541;-94
2021/12/20 03:26:03;;;;;;;7.65;2.70;;;6.50;99.90;;;;;;4943306;28;20194;-95
2021/12/20 03:28:29;;;;;;;9.60;3.70;;;6.90;99.90;;;;;;4948249;28;20199;-93
2021/12/20 03:30:55;;;;;;;6.60;3.60;;;;;;;;;;4959759;28;20484;-93
2021/12/20 03:33:20;;;;;;;9.87;3.53;;;6.50;99.90;;;;;;4947910;28;20214;-92
2021/12/20 03:35:46;;;;;;;9.80;3.83;;;6.90;99.90;;;;;;4945806;28;20824;-94
2021/12/20 03:38:12;;;;;;;7.53;3.40;;;;;;;;;;4971733;28;20195;-93
2021/12/20 03:40:39;;;;;;;8.48;3.78;;;;;;;;;;5004100;28;20445;-93
2021/12/20 03:43:24;;;;;;;9.82;4.18;;;6.80;99.90;;;;;;4932881;28;20207;-94
2021/12/20 03:45:57;;;;;;;6.00;2.75;;;6.80;99.90;;;;;;5288194;23;20221;-86
2021/12/20 04:23:34;;;;;;;9.32;3.65;;;6.60;99.90;;;;;;5193071;22;20231;-88
2021/12/20 04:26:17;;;;;;;13.98;2.92;;;5.20;99.90;;;;;;5077489;28;20167;-88
2021/12/20 04:29:09;;;;;;;7.68;2.63;;;6.70;99.90;;;;;;5259033;22;20234;-90
2021/12/20 04:34:13;;;;;;;7.20;3.90;;;6.70;99.90;;;;;;4894457;22;20226;-90
2021/12/20 04:36:53;;;;;;;10.95;4.15;;;6.80;99.90;;;;;;4958617;28;20208;-87
2021/12/20 04:44:40;;;;;;;16.00;5.15;;;6.40;99.90;;;;;;5849492;22;20660;-89
2021/12/20 04:47:18;;;;;;;14.77;4.57;;;6.60;99.90;;;;;;5079507;28;20190;-87
2021/12/20 04:50:02;;;;;;;13.38;3.70;;;6.60;99.90;;;;;;5376098;22;20214;-88
2021/12/20 04:52:40;;;;;;;8.93;4.85;;;6.60;99.90;;;;;;5085227;23;20283;-88
2021/12/20 04:57:57;;;;;;;11.40;3.58;;;6.50;99.90;;;;;;5331563;22;20240;-88
2021/12/20 05:10:44;;;;;;;10.83;4.40;;;6.60;99.90;;;;;;5039862;28;20210;-89
2021/12/20 05:13:22;;;;;;;11.82;4.03;;;6.50;99.90;;;;;;4986114;28;20537;-88
2021/12/20 05:15:56;;;;;;;8.88;4.20;;;6.50;99.90;;;;;;4965239;28;20178;-86
2021/12/20 05:18:33;;;;;;;16.33;5.13;;;6.40;99.90;;;;;;4965359;29;20238;-88
2021/12/20 05:21:21;;;;;;;11.65;3.45;;;6.40;99.90;;;;;;4970301;28;20201;-88
2021/12/20 05:26:24;;;;;;;9.75;4.03;;;;;;;;;;5119843;22;20243;-83
2021/12/20 05:32:05;;;;;;;16.35;4.70;;;6.30;99.90;;;;;;5506700;22;20234;-89
2021/12/20 05:34:49;;;;;;;5.95;3.00;;;6.30;99.90;;;;;;4957141;28;20206;-88
2021/12/20 05:40:52;;;;;;;7.22;3.55;;;6.20;99.90;;;;;;5345508;23;20253;-86
2021/12/20 05:43:18;;;;;;;10.30;4.25;;;;;;;;;;5057987;28;20179;-87
2021/12/20 05:45:56;;;;;;;6.85;3.83;;;6.40;99.90;;;;;;5089696;28;20161;-88
2021/12/20 05:48:33;;;;;;;16.95;5.72;;;6.30;99.90;;;;;;5101907;28;20201;-88
2021/12/20 05:51:14;;;;;;;12.75;4.40;;;6.40;99.90;;;;;;5096113;28;20174;-87
2021/12/20 05:53:40;;;;;;;11.90;3.15;;;6.40;99.90;;;;;;5068638;28;20243;-88
2021/12/20 05:56:16;;;;;;;9.82;2.88;;;6.40;99.90;;;;;;5081785;28;20189;-86
2021/12/20 05:58:51;;;;;;;16.98;4.72;;;6.30;99.90;;;;;;5168774;23;20221;-89
2021/12/20 06:01:57;;;;;;;7.70;4.00;;;6.30;99.90;;;;;;4942944;29;20183;-86
2021/12/20 06:04:23;;;;;;;12.40;3.65;;;;;;;;;;4937841;28;20197;-86
2021/12/20 06:06:51;;;;;;;11.35;3.60;;;6.20;99.90;;;;;;4957423;29;20174;-86
2021/12/20 06:09:20;;;;;;;12.00;4.30;;;6.20;99.90;;;;;;4946884;29;20202;-88
2021/12/20 06:11:54;;;;;;;8.70;3.97;;;6.10;99.90;;;;;;4949341;29;20191;-88
2021/12/20 06:15:10;;;;;;;15.63;4.15;;;6.10;99.90;;;;;;4963775;28;20222;-85
2021/12/20 06:17:29;;;;;;;10.40;4.25;;;;;;;;;;4946415;28;20227;-86
2021/12/20 06:19:55;;;;;;;10.57;4.45;;;5.90;99.90;;;;;;4944267;29;20183;-87
2021/12/20 06:22:25;;;;;;;13.17;4.50;;;5.90;99.90;;;;;;4944946;28;20246;-88
2021/12/20 06:24:54;;;;;;;19.73;4.20;;;5.80;99.90;;;;;;4945426;28;20188;-86
2021/12/20 06:27:23;;;;;;;19.95;4.80;;;8.20;99.90;;;;;;4939319;28;20187;-87
2021/12/20 06:30:09;;;;;;;19.50;4.40;;;6.60;99.90;;;;;;4951834;28;20249;-87
2021/12/20 06:35:46;;;;;;;16.80;4.40;;;5.70;99.90;;;;;;4950342;28;20213;-89
2021/12/20 06:38:21;;;;;;;14.40;4.95;;;5.70;99.90;;;;;;4922118;29;20255;-86
2021/12/20 06:40:49;;;;;;;12.18;4.95;;;5.70;99.90;;;;;;4934437;29;20182;-88
2021/12/20 06:43:16;;;;;;;22.27;4.63;;;5.50;99.90;;;;;;4934603;28;20290;-84
2021/12/20 06:45:43;;;;;;;16.17;4.30;;;;;;;;;;4597814;28;10000091;-88
2021/12/20 06:48:24;;;;;;;17.73;3.90;;;5.60;99.90;;;;;;4923858;29;20206;-84
2021/12/20 06:51:40;;;;;;;15.13;4.25;;;5.40;99.90;;;;;;4933288;28;20215;-88
2021/12/20 06:54:31;;;;;;;15.18;4.65;;;5.40;99.90;;;;;;4929598;28;20207;-88
2021/12/20 06:57:00;;;;;;;12.50;4.30;;;5.40;99.90;;;;;;4943086;28;20215;-87
2021/12/20 06:59:26;;;;;;;16.20;5.53;;;5.10;99.90;;;;;;5056630;23;20295;-82
2021/12/20 07:01:53;;;;;;;13.60;4.27;;;5.10;99.90;;;;;;5048729;28;20198;-87
2021/12/20 07:04:55;;;;;;;;;;;;;;;;;;;;;
2021/12/20 07:10:31;;;;;;;11.00;3.75;;;4.90;99.90;;;;;;5000043;22;20226;-87
2021/12/20 07:12:58;;;;;;;10.55;4.22;;;;;;;;;;4964243;28;20255;-88
2021/12/20 07:15:32;;;;;;;20.33;5.03;;;4.80;99.90;;;;;;4992114;28;20225;-89
2021/12/20 07:18:21;;;;;;;20.80;4.30;;;4.70;99.90;;;;;;4979863;23;20477;-87
2021/12/20 07:21:01;;;;;;;14.70;5.10;;;4.60;99.90;;;;;;4959805;28;20250;-90
2021/12/20 07:23:29;;;;;;;11.40;5.25;;;4.80;99.90;;;;;;5023944;28;20278;-88
2021/12/20 07:25:56;;;;;;;19.20;4.50;;;;;;;;;;5011657;22;20264;-90
2021/12/20 07:28:23;;;;;;;16.52;5.18;;;4.50;99.90;;;;;;4962936;28;20178;-91
2021/12/20 07:30:50;;;;;;;17.35;5.40;;;4.50;99.90;;;;;;4955616;28;20198;-91
2021/12/20 07:33:19;;;;;;;27.88;5.80;;;4.50;99.90;;;;;;4971973;28;20715;-93
2021/12/20 07:38:44;;;;;;;20.33;6.10;;;;;;;;;;5312134;22;20279;-82
2021/12/20 07:41:28;;;;;;;15.77;3.42;;;4.40;99.90;;;;;;4969254;28;20182;-86
2021/12/20 07:44:18;;;;;;;14.70;4.88;;;4.00;99.90;;;;;;4960318;28;20200;-88
2021/12/20 07:46:54;;;;;;;21.80;5.57;;;6.90;99.90;;;;;;4967333;28;20218;-87
2021/12/20 07:49:31;;;;;;;18.08;5.47;;;4.20;99.90;;;;;;4959818;28;20179;-91
2021/12/20 07:51:57;;;;;;;23.92;5.68;;;;;;;;;;4981999;28;20209;-86
2021/12/20 07:54:27;;;;;;;17.65;4.78;;;4.10;99.90;;;;;;4961651;29;20187;-90
2021/12/20 07:56:53;;;;;;;25.17;5.28;;;;;;;;;;4991807;28;20259;-90
2021/12/20 07:59:19;;;;;;;18.05;4.80;;;3.90;99.90;;;;;;4969095;28;20194;-86
2021/12/20 08:02:02;;;;;;;17.87;5.57;;;3.90;99.90;;;;;;4988847;28;20166;-87
2021/12/20 08:04:28;;;;;;;20.90;7.70;;;3.60;99.90;;;;;;4956237;28;20251;-85
2021/12/20 08:06:54;;;;;;;21.63;5.43;;;;;;;;;;4963186;28;20269;-87
2021/12/20 08:09:37;;;;;;;11.38;4.60;;;4.00;99.90;;;;;;4961707;28;20181;-87
2021/12/20 08:12:12;;;;;;;22.48;5.55;;;4.00;99.90;;;;;;4980109;28;20174;-85
2021/12/20 08:14:41;;;;;;;29.60;6.78;;;4.00;99.90;;;;;;4960987;28;20192;-86
2021/12/20 08:17:09;;;;;;;17.25;5.55;;;4.00;99.90;;;;;;4976419;28;20178;-83
2021/12/20 08:19:43;;;;;;;36.03;6.35;;;3.90;99.90;;;;;;4980138;28;20659;-89
2021/12/20 08:22:18;;;;;;;20.10;5.00;;;;;;;;;;4970199;28;20570;-88
2021/12/20 08:24:56;;;;;;;29.52;7.75;;;4.00;99.90;;;;;;4974979;28;20161;-89
2021/12/20 08:27:26;;;;;;;19.45;5.47;;;4.10;99.90;;;;;;4989440;28;20183;-89
2021/12/20 08:29:52;;;;;;;16.50;5.40;;;;;;;;;;4979596;28;20189;-86
2021/12/20 08:33:03;;;;;;;25.67;7.40;;;4.10;99.90;;;;;;4978179;28;20213;-88
2021/12/20 08:35:35;;;;;;;15.65;6.35;;;4.20;99.90;;;;;;4976001;28;20278;-86
2021/12/20 08:38:04;;;;;;;14.35;5.80;;;;;;;;;;4977638;28;20249;-84
2021/12/20 08:40:38;;;;;;;13.88;5.38;;;4.40;99.90;;;;;;4978116;28;20209;-85
2021/12/20 08:43:04;;;;;;;18.77;5.90;;;4.20;99.90;;;;;;4984373;28;20649;-90
2021/12/20 08:45:36;;;;;;;21.07;7.87;;;4.20;99.90;;;;;;4979838;28;20197;-87
2021/12/20 08:48:28;;;;;;;9.85;5.15;;;4.40;99.90;;;;;;4980832;28;20290;-86
2021/12/20 08:51:02;;;;;;;14.82;5.82;;;4.30;99.90;;;;;;4972652;28;20170;-88
2021/12/20 08:53:31;;;;;;;15.77;5.60;;;4.40;99.90;;;;;;4975408;28;20301;-88
2021/12/20 08:56:28;;;;;;;27.30;5.53;;;4.40;99.90;;;;;;4978701;28;20179;-87
2021/12/20 08:59:01;;;;;;;20.67;6.35;;;4.50;99.90;;;;;;4969572;28;20186;-86
2021/12/20 09:01:28;;;;;;;20.58;5.93;;;4.50;99.90;;;;;;4975218;28;20187;-86
2021/12/20 09:04:23;;;;;;;10.73;4.80;;;4.60;99.90;;;;;;4974276;28;20189;-87
2021/12/20 09:07:06;;;;;;;19.52;5.78;;;;;;;;;;4966807;28;20187;-87
2021/12/20 09:09:39;;;;;;;18.50;5.03;;;5.70;99.90;;;;;;4954648;28;20380;-83
2021/12/20 09:12:19;;;;;;;12.10;5.03;;;4.60;99.90;;;;;;4966265;28;20235;-87
2021/12/20 09:15:26;;;;;;;17.85;6.28;;;5.00;99.90;;;;;;4965623;29;20165;-89
2021/12/20 09:17:54;;;;;;;15.48;5.05;;;6.10;99.90;;;;;;4958666;28;20195;-83
2021/12/20 09:20:42;;;;;;;16.48;6.18;;;4.70;99.90;;;;;;4965438;28;20460;-87
2021/12/20 09:23:14;;;;;;;19.20;6.95;;;4.90;99.90;;;;;;4945968;29;20183;-86
2021/12/20 09:25:45;;;;;;;15.85;6.28;;;4.90;99.90;;;;;;4967009;28;20814;-90
2021/12/20 09:28:15;;;;;;;19.08;6.28;;;5.00;99.90;;;;;;4959621;29;20194;-81
2021/12/20 09:30:44;;;;;;;25.33;5.93;;;5.00;99.90;;;;;;4939545;28;20190;-87
2021/12/20 09:33:21;;;;;;;21.58;5.78;;;5.40;99.90;;;;;;4961469;29;20214;-85
2021/12/20 09:35:55;;;;;;;25.08;6.95;;;;;;;;;;4963783;28;20460;-90
2021/12/20 09:38:36;;;;;;;15.43;5.97;;;6.60;99.90;;;;;;4961939;28;20191;-89
2021/12/20 09:41:59;;;;;;;13.20;4.75;;;7.20;99.90;;;;;;4963532;28;20655;-88
2021/12/20 09:44:23;;;;;;;14.65;5.50;;;7.70;99.90;;;;;;4772212;28;10000970;-89
2021/12/20 09:46:54;;;;;;;19.48;5.03;;;8.30;99.90;;;;;;4953452;28;20416;-85
2021/12/20 09:49:23;;;;;;;20.77;5.93;;;;;;;;;;4959853;28;20210;-80
2021/12/20 09:52:19;;;;;;;;;;;;;;;;;;;;;
2021/12/20 09:54:58;;;;;;;12.67;5.33;;;9.90;99.90;;;;;;4951917;28;20301;-89
2021/12/20 09:57:24;;;;;;;18.30;6.20;;;11.00;99.90;;;;;;4956585;29;21145;-85
2021/12/20 09:59:51;;;;;;;14.53;6.70;;;10.50;99.90;;;;;;4949779;28;20443;-87
2021/12/20 10:02:24;;;;;;;15.63;4.80;;;10.60;99.90;;;;;;4954737;28;20436;-87
2021/12/20 10:05:01;;;;;;;18.10;7.40;;;10.90;99.90;;;;;;4955429;28;20431;-91
2021/12/20 10:07:29;;;;;;;21.07;9.50;;;10.60;99.90;;;;;;4960271;28;20423;-88
2021/12/20 10:10:06;;;;;;;17.57;6.43;;;10.50;99.90;;;;;;4954950;28;20450;-89
2021/12/20 10:12:35;;;;;;;17.40;5.27;;;10.00;99.90;;;;;;4944345;28;20492;-86
2021/12/20 10:15:07;;;;;;;17.43;5.60;;;9.80;99.90;;;;;;4955246;28;20450;-83
2021/12/20 10:17:55;;;;;;;20.43;6.20;;;9.40;99.90;;;;;;4953218;28;20553;-93
2021/12/20 10:20:28;;;;;;;15.68;6.28;;;12.50;99.90;;;;;;4959086;28;20450;-89
2021/12/20 10:23:16;;;;;;;13.40;6.32;;;8.80;99.90;;;;;;4958824;29;20210;-86
2021/12/20 10:25:52;;;;;;;16.23;5.78;;;8.50;99.90;;;;;;4956867;28;20186;-87
2021/12/20 10:28:27;;;;;;;18.30;6.60;;;8.60;99.90;;;;;;5022757;22;20312;-91
2021/12/20 10:31:00;;;;;;;11.98;4.63;;;8.60;99.90;;;;;;4948445;28;20181;-92
2021/12/20 10:33:27;;;;;;;19.77;6.05;;;10.50;99.90;;;;;;4932780;28;20219;-87
2021/12/20 10:35:59;;;;;;;16.58;6.65;;;9.80;99.90;;;;;;4956976;28;20186;-83
2021/12/20 10:38:43;;;;;;;20.95;5.88;;;8.50;99.90;;;;;;4944202;28;20182;-87
2021/12/20 10:41:35;;;;;;;16.83;5.05;;;10.60;99.90;;;;;;4934823;28;20292;-90
2021/12/20 10:44:19;;;;;;;12.07;4.37;;;8.90;99.90;;;;;;4944715;28;20546;-86
2021/12/20 10:46:58;;;;;;;18.38;5.40;;;8.90;99.90;;;;;;4947472;28;20426;-87
2021/12/20 10:49:47;;;;;;;17.48;5.25;;;9.30;99.90;;;;;;4932667;28;20478;-91
2021/12/20 10:52:37;;;;;;;9.05;4.30;;;9.40;99.90;;;;;;4928882;28;20447;-87
2021/12/20 10:55:07;;;;;;;9.20;4.47;;;9.80;99.90;;;;;;4956216;28;20192;-88
2021/12/20 10:57:41;;;;;;;18.67;4.90;;;10.10;99.90;;;;;;4931598;28;20482;-88
2021/12/20 11:00:21;;;;;;;20.92;5.32;;;12.20;99.90;;;;;;4945229;28;20179;-88
2021/12/20 11:09:05;;;;;;;12.40;5.50;;;12.00;99.90;;;;;;4949157;28;20205;-85
2021/12/20 11:11:39;;;;;;;22.73;5.40;;;11.90;99.90;;;;;;4940748;28;20410;-92
2021/12/20 11:14:28;;;;;;;14.50;4.97;;;13.50;99.90;;;;;;4932696;28;20473;-87
2021/12/20 11:17:02;;;;;;;17.33;5.37;;;13.90;91.60;;;;;;4931312;28;20447;-89
2021/12/20 11:19:40;;;;;;;13.97;4.40;;;14.80;76.70;;;;;;4932243;28;20438;-89
2021/12/20 11:22:29;;;;;;;15.40;5.70;;;15.50;87.60;;;;;;4953119;28;20442;-89
2021/12/20 11:25:28;;;;;;;10.97;4.07;;;16.20;66.90;;;;;;4954713;28;20433;-88
2021/12/20 11:27:54;;;;;;;11.73;4.90;;;16.70;73.80;;;;;;4932007;28;20431;-87
2021/12/20 11:30:35;;;;;;;17.60;6.17;;;17.80;55.70;;;;;;4931283;28;21039;-90
2021/12/20 11:33:01;;;;;;;10.27;4.50;;;17.60;55.00;;;;;;4928339;28;20475;-87
2021/12/20 11:35:27;;;;;;;12.57;4.40;;;17.70;59.40;;;;;;4914414;28;20887;-88
2021/12/20 11:37:56;;;;;;;17.60;9.00;;;;;;;;;;4917719;28;20440;-88
2021/12/20 11:41:00;;;;;;;11.30;4.40;;;17.90;46.90;;;;;;4923457;28;20199;-88
2021/12/20 11:44:10;;;;;;;6.50;3.63;;;18.50;44.00;;;;;;4764180;23;10001664;-94
2021/12/20 11:50:42;;;;;;;8.90;3.70;;;21.30;43.30;;;;;;5033654;22;20485;-87
2021/12/20 11:53:15;;;;;;;9.53;3.43;;;19.90;42.10;;;;;;4957047;28;20899;-90
2021/12/20 11:56:03;;;;;;;9.10;3.17;;;20.00;43.20;;;;;;4960428;28;20438;-89
2021/12/20 11:58:38;;;;;;;8.13;3.53;;;18.00;52.50;;;;;;4941808;28;20434;-89
2021/12/20 12:01:20;;;;;;;6.63;3.53;;;18.30;51.30;;;;;;4940992;28;20525;-85
2021/12/20 12:04:09;;;;;;;5.13;3.30;;;18.90;42.60;;;;;;4953821;28;20483;-85
2021/12/20 12:07:17;;;;;;;7.23;4.50;;;18.20;36.80;;;;;;4962183;28;20440;-91
2021/12/20 12:10:11;;;;;;;9.40;3.43;;;19.60;41.30;;;;;;4956165;28;20807;-87
2021/12/20 12:12:43;;;;;;;5.70;3.80;;;18.50;37.60;;;;;;4954607;28;20490;-89
2021/12/20 12:15:32;;;;;;;6.50;3.40;;;18.40;36.80;;;;;;4954820;29;20496;-86
2021/12/20 12:18:03;;;;;;;5.17;3.37;;;18.90;36.20;;;;;;4964995;28;20758;-86
2021/12/20 12:20:49;;;;;;;7.50;3.70;;;19.30;35.70;;;;;;4954741;28;20493;-86
2021/12/20 12:23:45;;;;;;;7.40;5.23;;;19.30;36.40;;;;;;4955451;29;20510;-88
2021/12/20 12:26:47;;;;;;;6.30;3.40;;;19.10;33.10;;;;;;4966129;28;20449;-90
2021/12/20 12:29:28;;;;;;;9.30;3.53;;;19.10;34.60;;;;;;4938522;28;20446;-88
2021/12/20 12:31:57;;;;;;;5.53;2.53;;;20.30;34.90;;;;;;4959434;28;20521;-91
2021/12/20 12:34:53;;;;;;;8.47;3.07;;;18.10;42.40;;;;;;4963053;28;20474;-92
2021/12/20 12:37:31;;;;;;;4.70;2.47;;;18.00;44.10;;;;;;4955373;28;20436;-89
2021/12/20 12:40:31;;;;;;;2.97;2.23;;;17.80;45.60;;;;;;4972456;28;20795;-88
2021/12/20 12:42:59;;;;;;;1.70;1.50;;;17.50;44.90;;;;;;4964829;28;20414;-86
2021/12/20 12:47:55;;;;;;;14.37;12.80;;;;;;;;;;5057360;28;20477;-86
2021/12/20 12:51:16;;;;;;;4.13;2.03;;;16.90;31.20;;;;;;5024278;28;20462;-93
2021/12/20 12:53:54;;;;;;;2.20;1.97;;;17.50;30.40;;;;;;5117127;22;20517;-89
2021/12/20 12:56:31;;;;;;;2.67;2.13;;;16.50;32.50;;;;;;4961305;28;20431;-83
2021/12/20 12:59:15;;;;;;;3.90;1.80;;;18.00;30.50;;;;;;4943557;29;20530;-88
2021/12/20 13:01:56;;;;;;;3.57;2.50;;;17.10;29.80;;;;;;4961996;29;20405;-86
2021/12/20 13:05:17;;;;;;;2.17;1.67;;;16.00;43.80;;;;;;4939279;28;20480;-87
2021/12/20 13:09:07;;;;;;;1.90;1.67;;;19.30;32.40;;;;;;4955970;29;20418;-88
2021/12/20 13:11:33;;;;;;;2.40;2.20;;;15.10;43.50;;;;;;4893250;28;20457;-90
2021/12/20 13:14:52;;;;;;;1.83;1.40;;;16.10;30.40;;;;;;4961321;28;20478;-92
2021/12/20 13:20:35;;;;;;;1.43;1.37;;;18.20;32.20;;;;;;4963300;28;20456;-90
2021/12/20 13:23:46;;;;;;;1.43;1.33;;;16.10;43.90;;;;;;4945217;28;20436;-86
2021/12/20 13:26:17;;;;;;;2.23;1.67;;;16.70;30.80;;;;;;4948305;28;20418;-85
2021/12/20 13:29:03;;;;;;;2.80;2.10;;;15.50;41.50;;;;;;4947112;28;20429;-82
2021/12/20 13:42:10;;;;;;;4.53;2.07;;;15.00;45.10;;;;;;4961977;26;20477;-89
2021/12/20 13:44:52;;;;;;;4.63;1.70;;;15.10;45.40;;;;;;5060901;28;20423;-92
2021/12/20 13:47:27;;;;;;;1.80;1.27;;;15.90;34.10;;;;;;5038883;28;20491;-87
2021/12/20 13:49:54;;;;;;;1.47;1.37;;;;;;;;;;5018753;22;20468;-90
2021/12/20 13:52:22;;;;;;;2.87;1.60;;;15.30;30.60;;;;;;4963487;28;21019;-91
2021/12/20 13:54:48;;;;;;;2.60;1.97;;;;;;;;;;4961558;28;20639;-90
2021/12/20 13:57:23;;;;;;;1.50;1.47;;;14.80;31.30;;;;;;4961357;28;20442;-91
2021/12/20 13:59:49;;;;;;;2.43;1.90;;;;;;;;;;4969723;28;20518;-93
2021/12/20 14:02:19;;;;;;;2.77;1.70;;;14.90;31.40;;;;;;4956260;28;20418;-89
2021/12/20 14:04:48;;;;;;;2.30;2.10;;;13.80;32.00;;;;;;4951576;28;20655;-91
2021/12/20 14:07:44;;;;;;;5.27;1.80;;;12.40;31.60;;;;;;4958371;28;20426;-92
2021/12/20 14:10:15;;;;;;;3.27;2.90;;;13.40;33.50;;;;;;4953913;28;20433;-90
2021/12/20 14:12:51;;;;;;;2.93;1.10;;;13.90;48.30;;;;;;4965252;28;20461;-90
2021/12/20 14:18:07;;;;;;;4.57;2.30;;;13.40;46.20;;;;;;5061225;28;20477;-83
2021/12/20 14:20:38;;;;;;;1.80;1.70;;;13.30;34.30;;;;;;5044007;28;20638;-81
2021/12/20 14:23:08;;;;;;;2.03;1.23;;;13.10;34.50;;;;;;5063000;28;20420;-82
2021/12/20 14:25:40;;;;;;;2.57;1.33;;;13.10;35.40;;;;;;5045070;28;20413;-85
2021/12/20 14:28:13;;;;;;;2.03;1.87;;;12.50;35.30;;;;;;5047205;28;20421;-81
2021/12/20 14:30:51;;;;;;;6.13;2.50;;;12.70;35.50;;;;;;5047532;28;20417;-82
2021/12/20 14:33:25;;;;;;;2.25;1.35;;;11.80;52.70;;;;;;5048223;28;20556;-84
2021/12/20 14:35:54;;;;;;;8.07;2.57;;;11.60;38.00;;;;;;5064705;28;20592;-82
2021/12/20 14:38:41;;;;;;;2.97;1.38;;;11.10;53.60;;;;;;5045164;28;20801;-86
2021/12/20 14:41:29;;;;;;;4.63;2.63;;;10.80;55.70;;;;;;5061336;28;20201;-84
2021/12/20 14:44:00;;;;;;;2.60;1.80;;;10.70;40.50;;;;;;5064688;28;20471;-85
2021/12/20 14:46:31;;;;;;;4.65;2.20;;;10.10;42.90;;;;;;5047062;28;20515;-84
2021/12/20 14:49:05;;;;;;;2.78;1.38;;;10.00;65.30;;;;;;5065299;28;20261;-82
2021/12/20 14:51:32;;;;;;;21.53;12.17;;;10.00;48.80;;;;;;5037533;28;20194;-80
2021/12/20 14:54:10;;;;;;;1.55;1.42;;;9.10;54.30;;;;;;5056427;28;20460;-81
2021/12/20 14:56:47;;;;;;;2.63;1.48;;;8.80;67.20;;;;;;5054150;28;20244;-85
2021/12/20 14:59:15;;;;;;;4.63;3.03;;;8.50;86.10;;;;;;5035293;28;20254;-82
2021/12/20 15:01:43;;;;;;;6.40;2.53;;;;;;;;;;5033632;28;20652;-82
2021/12/20 15:04:11;;;;;;;3.15;2.95;;;8.20;99.80;;;;;;5056397;28;20713;-76
2021/12/20 15:06:45;;;;;;;2.95;2.00;;;8.00;99.90;;;;;;5038113;28;20197;-86
2021/12/20 15:09:19;;;;;;;4.55;2.03;;;7.70;99.90;;;;;;5043148;28;20246;-87
2021/12/20 15:11:45;;;;;;;5.10;2.30;;;7.60;99.90;;;;;;5061003;28;20205;-85
2021/12/20 15:14:11;;;;;;;4.93;1.83;;;7.40;99.90;;;;;;5059439;28;20203;-83
2021/12/20 15:16:37;;;;;;;5.27;2.60;;;;;;;;;;4333926;28;9999998;-84
2021/12/20 15:19:04;;;;;;;4.57;2.38;;;7.80;99.90;;;;;;5028745;28;20184;-81
2021/12/20 15:21:35;;;;;;;3.90;3.25;;;7.30;99.90;;;;;;5022311;28;20279;-81
2021/12/20 15:24:01;;;;;;;5.70;2.40;;;;;;;;;;5022403;28;20751;-83
2021/12/20 15:26:27;;;;;;;4.63;2.10;;;;;;;;;;5021076;28;20199;-83
2021/12/20 15:29:00;;;;;;;5.15;2.10;;;;;;;;;;5022601;28;20898;-82
2021/12/20 15:31:30;;;;;;;1.98;1.73;;;;;;;;;;5027243;28;20203;-85
2021/12/20 15:34:02;;;;;;;2.10;2.00;;;;;;;;;;5019213;28;20227;-88
2021/12/20 15:36:28;;;;;;;3.28;2.58;;;;;;;;;;5032906;28;20179;-86
2021/12/20 15:38:54;;;;;;;8.45;1.95;;;;;;;;;;5046808;28;20191;-88
2021/12/20 15:41:21;;;;;;;3.80;2.10;;;;;;;;;;5041579;28;20283;-85
2021/12/20 15:43:47;;;;;;;6.38;2.33;;;;;;;;;;5042137;28;20246;-83
2021/12/20 15:46:16;;;;;;;2.50;2.10;;;;;;;;;;5034295;28;20191;-87
2021/12/20 15:48:45;;;;;;;4.88;3.30;;;;;;;;;;5028610;28;20194;-89